Latest Weather Observations for Larapuna (Eddystone Point)

IDT60801

Issued at 5:31 pm EDT Sunday 1 March 2015 (issued every 30 minutes, with the page automatically refreshed every 10 minutes)

About weather observations | Map of weather stations | Latest weather observations for TAS | Other Formats
Station Details ID: 092045 Name: LARAPUNA (EDDYSTONE POINT) Lat: -40.99 Lon: 148.35 Height: 19.7 m
Data from the previous 72 hours. | See also: Recent months at Larapuna (Eddystone Point)
Date/Time
EDT
Temp
°C
App
Temp
°C
Dew
Point
Rel
Hum
%
Delta-T
°C
Wind Press
QNH
hPa
Press
MSL
hPa
Rain
since 9 am
mm
Dir
 
Spd
km/h
Gust
km/h
Spd
kts
Gust
kts
01/05:30pm 18.2 15.9 10.3 60 4.2 ESE 13 19 7 10 1011.8 1011.8 0.2
01/05:00pm 19.5 16.3 11.3 59 4.5 ESE 19 20 10 11 1011.4 1011.4 0.2
01/04:30pm 19.4 16.4 12.7 65 3.8 ESE 20 26 11 14 1010.9 1010.9 0.2
01/04:00pm 17.5 14.9 12.0 70 3.0 E 17 26 9 14 1010.4 1010.4 0.2
01/03:30pm 19.4 16.7 12.9 66 3.7 E 19 24 10 13 1010.0 1010.0 0.2
01/03:00pm 19.6 16.4 11.1 58 4.7 ENE 19 20 10 11 1009.6 1009.6 0.0
01/02:30pm 21.7 19.2 9.6 46 6.5 E 13 19 7 10 1009.3 1009.3 0.0
01/02:00pm 20.0 17.5 6.4 41 6.8 ENE 9 11 5 6 1008.8 1008.8 0.0
01/01:30pm 21.7 20.3 10.8 50 6.0 NE 9 13 5 7 1008.5 1008.5 0.0
01/01:00pm 19.9 18.3 11.4 58 4.7 NE 11 15 6 8 1008.2 1008.2 0.0
01/12:30pm 21.4 19.6 10.9 51 5.8 ESE 11 15 6 8 1007.9 1007.9 0.0
01/12:00pm 21.9 20.3 11.6 52 5.8 SE 11 15 6 8 1007.6 1007.6 0.0
01/11:30am 20.9 19.7 11.5 55 5.2 E 9 13 5 7 1007.3 1007.3 0.0
01/11:00am 20.5 20.0 12.7 61 4.4 E 7 11 4 6 1007.0 1007.0 0.0
01/10:30am 19.4 19.2 12.9 66 3.7 S 6 9 3 5 1006.4 1006.4 0.0
01/10:00am 18.9 18.7 13.7 72 3.0 SSW 7 9 4 5 1005.8 1005.7 0.0
01/09:30am 17.6 17.1 13.7 78 2.2 WNW 9 15 5 8 1005.2 1005.1 0.0
01/09:00am 16.9 15.8 14.4 85 1.4 W 13 17 7 9 1004.6 1004.5 14.4
01/08:30am 15.5 13.4 13.7 89 1.0 W 17 22 9 12 1003.8 1003.7 14.4
01/08:00am 14.2 10.9 12.9 92 0.7 W 22 30 12 16 1003.3 1003.2 14.4
01/07:30am 13.6 10.6 12.5 93 0.6 W 20 30 11 16 1002.6 1002.5 14.4
01/07:00am 13.8 11.1 12.9 94 0.5 WNW 19 26 10 14 1002.0 1001.9 14.4
01/06:30am 14.3 11.2 13.5 95 0.4 WNW 22 28 12 15 1001.1 1001.0 14.4
01/05:30am 14.9 12.5 13.9 94 0.6 WNW 19 24 10 13 1000.6 1000.5 14.4
01/05:00am 15.2 13.3 14.2 94 0.6 NW 17 20 9 11 1000.5 1000.4 14.2
01/04:30am 15.1 13.1 13.8 92 0.7 NW 17 22 9 12 1000.3 1000.2 14.2
01/04:00am 14.8 11.7 13.3 91 0.8 NW 22 33 12 18 1000.5 1000.4 14.2
01/03:30am 15.2 11.7 13.4 89 1.0 NW 24 37 13 20 1001.0 1000.9 13.4
01/02:49am 16.6 14.0 15.8 95 0.5 W 24 46 13 25 1000.9 1000.8 12.8
01/02:30am 17.6 15.4 17.0 96 0.4 NNW 24 33 13 18 1000.9 1000.8 10.4
01/02:00am 17.3 14.9 16.5 95 0.5 NNW 24 37 13 20 1001.0 1000.9 9.8
01/01:30am 17.4 14.2 16.4 94 0.6 NW 28 39 15 21 1001.6 1001.5 9.4
01/01:00am 17.5 14.4 16.5 94 0.6 NW 28 35 15 19 1001.6 1001.5 8.8
 
Date/Time
EDT
Temp
°C
App
Temp
°C
Dew
Point
Rel
Hum
%
Delta-T
°C
Wind Press
QNH
hPa
Press
MSL
hPa
Rain
since 9 am
mm
Dir
 
Spd
km/h
Gust
km/h
Spd
kts
Gust
kts
28/11:59pm 18.1 15.2 17.1 94 0.6 NNW 28 43 15 23 1002.6 1002.5 5.6
28/11:30pm 18.3 17.5 17.1 93 0.7 WNW 17 20 9 11 1002.8 1002.7 1.0
28/11:00pm 18.1 17.6 16.9 93 0.7 NW 15 20 8 11 1002.2 1002.1 0.8
28/10:30pm 18.3 18.1 16.8 91 0.9 WNW 13 24 7 13 1002.3 1002.2 0.8
28/10:00pm 18.3 19.2 16.6 90 1.0 WNW 7 9 4 5 1001.9 1001.8 0.0
28/09:30pm 18.3 18.5 16.8 91 0.9 NW 11 15 6 8 1001.9 1001.8 0.0
28/09:00pm 18.7 16.5 17.0 90 1.0 NNW 24 28 13 15 1001.4 1001.3 0.0
28/08:30pm 18.6 17.2 17.1 91 0.9 NNW 20 30 11 16 1001.3 1001.2 0.0
28/08:00pm 18.6 16.5 17.1 91 0.9 NNW 24 30 13 16 1001.4 1001.3 0.0
28/07:30pm 18.7 16.6 17.2 91 0.9 NNW 24 32 13 17 1001.5 1001.4 0.0
28/07:00pm 18.8 18.0 17.1 90 1.0 NNW 17 24 9 13 1001.7 1001.6 0.0
28/06:30pm 19.0 17.2 17.0 88 1.2 NNW 22 28 12 15 1001.7 1001.6 0.0
28/06:00pm 18.6 16.5 17.1 91 0.9 NNW 24 30 13 16 1002.3 1002.2 0.0
28/05:30pm 18.4 15.7 17.6 95 0.5 NNW 28 33 15 18 1002.5 1002.4 0.0
28/05:00pm 18.5 15.3 17.3 93 0.7 NNW 30 39 16 21 1002.7 1002.6 0.0
28/04:30pm 19.1 15.3 17.2 89 1.2 NNW 33 46 18 25 1002.9 1002.8 0.0
28/04:00pm 19.4 15.5 17.0 86 1.5 NNW 33 46 18 25 1003.2 1003.1 0.0
28/03:48pm 19.7 16.1 17.3 86 1.5 NNW 32 50 17 27 1003.4 1003.3 0.0
28/03:30pm 19.4 16.3 15.7 79 2.2 N 26 30 14 16 1003.5 1003.4 0.0
28/03:00pm 19.8 17.5 15.7 77 2.4 N 22 28 12 15 1004.0 1003.9 0.0
28/02:30pm 19.2 17.0 14.5 74 2.7 N 19 22 10 12 1004.3 1004.2 0.0
28/02:00pm 20.2 17.7 14.1 68 3.5 NNW 20 26 11 14 1004.5 1004.4 0.0
28/01:30pm 19.4 16.6 14.2 72 3.0 N 22 28 12 15 1004.7 1004.6 0.0
28/01:00pm 19.7 16.6 13.4 67 3.6 N 22 28 12 15 1005.1 1005.0 0.0
28/12:30pm 18.1 14.7 13.6 75 2.6 N 24 30 13 16 1005.4 1005.3 0.0
28/12:00pm 17.9 14.1 13.6 76 2.4 N 26 33 14 18 1005.9 1005.8 0.0
28/11:30am 19.2 15.8 13.8 71 3.1 N 24 30 13 16 1006.2 1006.1 0.0
28/11:00am 19.7 17.2 14.1 70 3.2 N 20 26 11 14 1006.4 1006.4 0.0
28/10:30am 19.3 18.1 14.1 72 3.0 N 13 17 7 9 1006.9 1006.9 0.0
28/10:00am 18.5 18.6 13.8 74 2.7 NW 6 11 3 6 1007.4 1007.4 0.0
28/09:30am 18.0 17.8 13.5 75 2.5 SSW 7 9 4 5 1007.0 1007.0 0.0
28/09:00am 17.0 16.5 13.7 81 1.9 SSW 9 11 5 6 1007.2 1007.2 0.0
28/08:30am 15.9 14.4 13.2 84 1.5 SSW 13 17 7 9 1007.1 1007.1 0.0
28/08:00am 15.3 13.7 12.8 85 1.4 SW 13 15 7 8 1007.5 1007.5 0.0
28/07:30am 14.9 13.2 12.6 86 1.3 SW 13 13 7 7 1007.3 1007.3 0.0
28/07:00am 15.7 14.2 13.2 85 1.4 S 13 15 7 8 1007.9 1007.9 0.0
28/06:30am 15.3 13.4 13.0 86 1.3 S 15 19 8 10 1007.9 1007.9 0.0
28/06:00am 15.4 12.5 12.9 85 1.4 S 20 24 11 13 1007.8 1007.8 0.0
28/05:30am 15.4 12.5 12.9 85 1.4 S 20 24 11 13 1007.9 1007.9 0.0
28/05:00am 15.6 12.0 13.1 85 1.4 S 24 28 13 15 1008.2 1008.2 0.0
28/04:30am 15.7 11.7 13.0 84 1.5 SSE 26 32 14 17 1008.3 1008.3 0.0
28/04:00am 15.7 10.5 12.8 83 1.6 S 32 37 17 20 1008.3 1008.3 0.0
28/03:30am 16.0 11.3 13.1 83 1.6 S 30 35 16 19 1008.9 1008.9 0.0
28/03:00am 16.2 11.1 13.1 82 1.7 S 32 37 17 20 1009.0 1009.0 0.0
28/02:30am 16.2 11.0 13.3 83 1.6 S 33 41 18 22 1008.9 1008.9 0.0
28/02:00am 16.1 10.5 13.4 84 1.5 S 35 43 19 23 1009.0 1009.0 0.0
28/01:30am 16.1 11.0 13.6 85 1.4 S 33 41 18 22 1009.3 1009.3 0.0
28/01:00am 16.1 10.7 13.8 86 1.3 S 35 41 19 22 1009.3 1009.3 0.0
28/12:30am 16.3 10.2 14.0 86 1.3 S 39 44 21 24 1009.3 1009.3 0.0
28/12:00am 16.4 12.4 14.1 86 1.3 SSW 28 41 15 22 1009.4 1009.4 0.0
 
Date/Time
EDT
Temp
°C
App
Temp
°C
Dew
Point
Rel
Hum
%
Delta-T
°C
Wind Press
QNH
hPa
Press
MSL
hPa
Rain
since 9 am
mm
Dir
 
Spd
km/h
Gust
km/h
Spd
kts
Gust
kts
27/11:30pm 14.4 10.9 10.2 76 2.2 WSW 19 30 10 16 1009.7 1009.7 0.0
27/11:00pm 13.9 11.2 10.3 79 1.9 W 15 22 8 12 1009.7 1009.7 0.0
27/10:30pm 14.4 12.1 10.6 78 2.0 WNW 13 19 7 10 1009.2 1009.2 0.0
27/10:00pm 15.0 12.5 11.0 77 2.1 NW 15 19 8 10 1009.3 1009.3 0.0
27/09:30pm 15.8 13.0 11.4 75 2.4 NW 17 20 9 11 1009.0 1009.0 0.0
27/09:00pm 16.1 12.7 11.1 72 2.7 NNW 20 28 11 15 1008.9 1008.9 0.0
27/08:30pm 16.0 13.8 10.7 71 2.8 NNW 13 17 7 9 1008.7 1008.7 0.0
27/08:00pm 16.1 12.9 10.0 67 3.2 WNW 17 20 9 11 1008.8 1008.8 0.0
27/07:30pm 16.3 13.1 9.9 66 3.4 WNW 17 26 9 14 1008.4 1008.4 0.0
27/07:00pm 16.5 12.0 10.1 66 3.4 NW 24 33 13 18 1008.1 1008.1 0.0
27/06:30pm 17.0 12.3 10.8 67 3.3 NW 26 33 14 18 1008.4 1008.4 0.0
27/06:00pm 17.6 13.9 11.4 67 3.4 NW 22 32 12 17 1008.2 1008.2 0.0
27/05:30pm 18.6 16.6 11.4 63 3.9 NW 13 19 7 10 1008.3 1008.3 0.0
27/05:00pm 18.9 15.7 11.9 64 3.9 NW 20 28 11 15 1008.3 1008.3 0.0
27/04:30pm 18.7 15.3 12.5 67 3.5 NW 22 30 12 16 1008.2 1008.2 0.0
27/04:00pm 18.2 15.2 14.7 80 2.0 N 24 30 13 16 1008.3 1008.3 0.0
27/03:30pm 18.5 16.3 14.4 77 2.4 N 19 26 10 14 1008.7 1008.7 0.0
27/03:00pm 18.8 18.2 14.5 76 2.5 NNE 11 17 6 9 1008.8 1008.8 0.0
27/02:30pm 19.2 18.6 14.7 75 2.6 E 11 13 6 7 1008.7 1008.7 0.0
27/02:00pm 20.3 19.8 14.9 71 3.2 S 11 15 6 8 1009.4 1009.4 0.0
27/01:30pm 19.2 18.8 14.0 72 3.0 S 9 13 5 7 1009.5 1009.5 0.0
27/01:00pm 18.6 18.2 14.1 75 2.6 S 9 13 5 7 1009.5 1009.5 0.0
27/12:30pm 18.7 16.9 14.4 76 2.5 S 17 20 9 11 1009.8 1009.8 0.0
27/12:00pm 18.5 16.5 14.0 75 2.6 S 17 20 9 11 1010.3 1010.3 0.0
27/11:30am 18.3 16.2 14.6 79 2.1 SSW 19 20 10 11 1010.5 1010.5 0.0
27/11:00am 18.8 16.3 14.1 74 2.7 SSW 20 26 11 14 1010.6 1010.6 0.0
27/10:30am 19.2 16.8 14.5 74 2.7 SSW 20 24 11 13 1010.4 1010.4 0.0
27/10:00am 18.7 16.2 14.2 75 2.6 S 20 24 11 13 1010.6 1010.6 0.0
27/09:30am 17.8 14.3 13.5 76 2.4 S 24 30 13 16 1010.7 1010.7 0.0
27/09:00am 16.8 13.2 13.1 79 2.1 S 24 30 13 16 1010.3 1010.3 0.0
27/08:30am 16.2 12.6 12.9 81 1.8 S 24 30 13 16 1010.6 1010.6 0.0
27/08:00am 15.7 10.8 12.5 81 1.8 SSW 30 35 16 19 1010.7 1010.7 0.0
27/07:30am 16.0 12.1 13.3 84 1.5 S 26 30 14 16 1010.5 1010.5 0.0
27/07:00am 16.0 12.0 12.9 82 1.7 SSE 26 32 14 17 1009.9 1009.9 0.0
27/06:30am 15.7 11.1 12.3 80 1.9 SSE 28 32 15 17 1009.7 1009.7 0.0
27/06:00am 15.7 10.7 12.3 80 1.9 S 30 35 16 19 1009.7 1009.7 0.0
27/05:30am 15.7 10.3 12.1 79 2.0 S 32 37 17 20 1009.6 1009.6 0.0
27/05:00am 15.6 10.0 12.2 80 1.9 S 33 39 18 21 1009.6 1009.6 0.0
27/04:30am 15.6 9.7 12.5 82 1.7 S 35 39 19 21 1009.7 1009.7 0.0
27/04:00am 15.5 9.7 12.8 84 1.5 S 35 43 19 23 1009.9 1009.9 0.0
27/03:30am 15.2 9.0 12.7 85 1.4 S 37 44 20 24 1010.1 1010.1 0.0
27/03:00am 15.6 9.5 13.1 85 1.4 S 37 46 20 25 1010.4 1010.4 0.0
27/02:30am 15.6 9.1 12.9 84 1.5 S 39 46 21 25 1010.3 1010.3 0.0
27/02:00am 15.8 9.2 12.7 82 1.7 S 39 46 21 25 1010.3 1010.3 0.0
27/01:30am 15.8 8.8 12.5 81 1.8 S 41 48 22 26 1010.5 1010.5 0.0
27/01:00am 15.8 9.2 12.5 81 1.8 S 39 46 21 25 1010.8 1010.8 0.0
27/12:30am 15.8 8.8 12.5 81 1.8 S 41 46 22 25 1010.9 1010.9 0.0
27/12:00am 16.0 9.4 12.7 81 1.8 S 39 46 21 25 1011.0 1011.0 0.0
 
Date/Time
EDT
Temp
°C
App
Temp
°C
Dew
Point
Rel
Hum
%
Delta-T
°C
Wind Press
QNH
hPa
Press
MSL
hPa
Rain
since 9 am
mm
Dir
 
Spd
km/h
Gust
km/h
Spd
kts
Gust
kts
26/11:30pm 16.0 9.1 12.9 82 1.7 S 41 48 22 26 1010.9 1010.9 0.0
26/11:00pm 16.0 8.6 12.6 80 1.9 S 43 50 23 27 1010.8 1010.8 0.0
26/10:30pm 16.1 8.6 12.8 81 1.8 S 44 54 24 29 1010.7 1010.7 0.0
26/10:00pm 16.2 8.5 13.3 83 1.6 S 46 56 25 30 1010.5 1010.5 0.0
26/09:30pm 16.3 8.3 13.4 83 1.6 S 48 57 26 31 1010.5 1010.5 0.0
26/09:00pm 16.4 8.1 13.9 85 1.4 S 50 59 27 32 1009.8 1009.8 0.0
26/08:30pm 17.0 8.9 14.5 85 1.4 S 50 61 27 33 1009.3 1009.3 0.0
26/08:00pm 17.5 9.6 14.8 84 1.6 S 50 57 27 31 1008.5 1008.5 0.0
26/07:40pm 19.0 14.1 15.3 79 2.2 SW 35 65 19 35 1007.7 1007.7 0.0
26/07:39pm 19.3 15.0 15.4 78 2.3 WSW 32 57 17 31 1007.9 1007.9 0.0
26/07:37pm 19.6 16.2 14.8 74 2.8 W 26 52 14 28 1007.9 1007.9 0.0
26/07:36pm 20.0 16.9 14.6 71 3.2 W 24 52 13 28 1008.0 1008.0 0.0
26/07:30pm 20.2 17.8 14.3 69 3.4 NW 20 28 11 15 1007.2 1007.2 0.0
26/07:00pm 21.4 18.9 14.1 63 4.3 NW 20 28 11 15 1006.6 1006.6 0.0
26/06:30pm 22.4 19.3 14.5 61 4.7 NW 24 32 13 17 1006.4 1006.4 0.0
26/06:00pm 22.8 20.1 14.6 60 4.9 NW 22 32 12 17 1006.3 1006.3 0.0

Other Formats:

Comma delimited format used in spreadsheet applications
http://www.bom.gov.au/fwo/IDT60801/IDT60801.94983.axf

JavaScript Object Notation format (JSON) in row-major order
http://www.bom.gov.au/fwo/IDT60801/IDT60801.94983.json